Terminal Aerodrome Forecast
Issued by NWS

Home | Current Version | Previous Version | Text Only | Print | Product List | Glossary On
Versions: 1 2 3 4 5 6 7 8 9 10 11 12 13 14 15 16 17 18 19 20 21 22 23 24 25 26 27 28 29 30 31 32 33 34 35 36
284
FTUS43 KGRB 221139
TAFRHI
TAF
KRHI 221139Z 2212/2312 06009G17KT P6SM OVC007
     FM221400 06010G17KT 3SM -SN OVC006
     FM221800 06012G20KT 1SM -SN BR OVC004
      TEMPO 2220/2224 1/2SM SN OVC002
     FM230000 04011KT 3/4SM -SN OVC003
     FM230500 03010KT 3SM -SN OVC006=

USA.gov is the U.S. government's official web portal to all federal, state and local government web resources and services.